createdAt,value
2019-02-07T00:00:21.873Z,100692.77
2019-02-07T00:03:25.479Z,100691.44
2019-02-07T00:06:29.093Z,100693.13
2019-02-07T00:09:32.783Z,100681.80
2019-02-07T00:12:36.391Z,100679.89
2019-02-07T00:15:39.972Z,100670.25
2019-02-07T00:18:44.571Z,100669.38
2019-02-07T00:21:48.124Z,100668.92
2019-02-07T00:24:51.721Z,100672.52
2019-02-07T00:27:55.437Z,100672.52
2019-02-07T00:30:59.033Z,100661.06
2019-02-07T00:34:03.395Z,100661.56
2019-02-07T00:37:06.951Z,100657.15
2019-02-07T00:40:12.566Z,100652.34
2019-02-07T00:43:17.245Z,100655.45
2019-02-07T00:46:20.862Z,100647.14
2019-02-07T00:49:24.443Z,100649.78
2019-02-07T00:52:28.020Z,100636.14
2019-02-07T00:55:31.647Z,100632.17
2019-02-07T00:58:35.356Z,100626.50
2019-02-07T01:01:39.449Z,100625.17
2019-02-07T01:04:43.058Z,100627.45
2019-02-07T01:07:46.652Z,100627.45
2019-02-07T01:10:50.841Z,100616.37
2019-02-07T01:13:54.409Z,100601.92
2019-02-07T01:16:57.997Z,100595.17
2019-02-07T01:20:02.958Z,100597.36
2019-02-07T01:23:06.517Z,100590.00
2019-02-07T01:26:10.142Z,100586.03
2019-02-07T01:29:13.848Z,100579.78
2019-02-07T01:32:17.435Z,100572.66
2019-02-07T01:35:23.115Z,100564.35
2019-02-07T01:38:28.218Z,100554.25
2019-02-07T01:41:31.835Z,100553.30
2019-02-07T01:44:35.459Z,100549.78
2019-02-07T01:47:39.535Z,100544.48
2019-02-07T01:50:44.282Z,100538.36
2019-02-07T01:53:47.876Z,100535.71
2019-02-07T01:56:51.871Z,100533.06
2019-02-07T01:59:55.584Z,100526.44
2019-02-07T02:02:59.301Z,100519.82
2019-02-07T02:06:03.207Z,100509.78
2019-02-07T02:09:08.147Z,100500.97
2019-02-07T02:12:11.829Z,100497.50
2019-02-07T02:15:24.112Z,100492.66
2019-02-07T02:18:24.391Z,100487.83
2019-02-07T02:21:28.055Z,100484.72
2019-02-07T02:24:31.801Z,100476.77
2019-02-07T02:27:35.400Z,100465.31
2019-02-07T02:30:38.988Z,100466.27
2019-02-07T02:33:42.721Z,100470.61
2019-02-07T02:36:46.297Z,100466.64
2019-02-07T02:39:49.913Z,100465.50
2019-02-07T02:42:53.612Z,100472.52
2019-02-07T02:45:57.315Z,100472.52
2019-02-07T02:49:00.931Z,100472.98
2019-02-07T02:52:04.793Z,100472.52
2019-02-07T02:55:09.623Z,100469.88
2019-02-07T02:58:13.271Z,100466.37
2019-02-07T03:01:42.590Z,100467.59
2019-02-07T03:04:53.803Z,100460.20
2019-02-07T03:08:15.357Z,100452.27
2019-02-07T03:11:36.807Z,100444.32
2019-02-07T03:14:58.423Z,100435.45
2019-02-07T03:18:18.248Z,100424.86
2019-02-07T03:21:39.721Z,100409.53
2019-02-07T03:25:01.306Z,100408.11
2019-02-07T03:28:24.760Z,100402.91
2019-02-07T03:31:47.456Z,100386.28
2019-02-07T03:35:19.414Z,100388.44
2019-02-07T03:38:30.594Z,100381.82
2019-02-07T03:42:00.933Z,100380.98
2019-02-07T03:45:22.793Z,100379.66
2019-02-07T03:48:33.798Z,100376.62
2019-02-07T03:51:55.430Z,100366.03
2019-02-07T03:55:18.006Z,100367.35
2019-02-07T03:58:39.499Z,100360.47
2019-02-07T04:01:50.715Z,100354.30
2019-02-07T04:05:19.590Z,100347.49
2019-02-07T04:08:43.406Z,100346.77
2019-02-07T04:12:09.797Z,100345.80
2019-02-07T04:15:47.751Z,100340.51
2019-02-07T04:19:01.640Z,100335.58
2019-02-07T04:22:30.366Z,100331.23
2019-02-07T04:26:02.311Z,100327.27
2019-02-07T04:29:24.857Z,100319.32
2019-02-07T04:32:58.247Z,100314.39
2019-02-07T04:36:23.159Z,100311.28
2019-02-07T04:39:37.499Z,100302.11
2019-02-07T04:42:55.668Z,100295.49
2019-02-07T04:46:27.066Z,100294.17
2019-02-07T04:49:48.852Z,100291.98
2019-02-07T04:53:01.454Z,100286.22
2019-02-07T04:56:23.055Z,100289.23
2019-02-07T04:59:36.394Z,100290.20
2019-02-07T05:02:58.057Z,100290.20
2019-02-07T05:06:24.469Z,100280.17
2019-02-07T05:09:45.781Z,100279.24
2019-02-07T05:13:14.412Z,100270.90
2019-02-07T05:16:39.701Z,100272.23
2019-02-07T05:20:06.316Z,100269.58
2019-02-07T05:23:27.824Z,100270.17
2019-02-07T05:26:50.459Z,100259.58
2019-02-07T05:30:05.572Z,100254.75
2019-02-07T05:33:41.750Z,100260.05
2019-02-07T05:37:04.317Z,100260.55
2019-02-07T05:40:13.726Z,100257.89
2019-02-07T05:43:36.329Z,100262.69
2019-02-07T05:47:01.280Z,100257.89
2019-02-07T05:50:23.501Z,100261.47
2019-02-07T05:53:53.944Z,100260.14
2019-02-07T05:57:16.340Z,100256.57
2019-02-07T06:00:37.997Z,100258.72
2019-02-07T06:03:48.913Z,100253.06
2019-02-07T06:07:10.676Z,100254.39
2019-02-07T06:10:32.154Z,100250.05
2019-02-07T06:13:59.719Z,100252.59
2019-02-07T06:17:21.162Z,100242.94
2019-02-07T06:20:41.543Z,100238.50
2019-02-07T06:24:08.101Z,100229.70
2019-02-07T06:27:39.455Z,100227.05
2019-02-07T06:31:00.633Z,100228.38
2019-02-07T06:34:28.981Z,100233.67
2019-02-07T06:37:52.568Z,100238.50
2019-02-07T06:41:14.111Z,100235.95
2019-02-07T06:44:35.602Z,100236.31
2019-02-07T06:48:04.087Z,100230.66
2019-02-07T06:51:26.737Z,100235.95
2019-02-07T06:54:53.375Z,100220.06
2019-02-07T06:58:26.131Z,100217.05
2019-02-07T07:01:51.667Z,100213.08
2019-02-07T07:05:18.113Z,100205.97
2019-02-07T07:08:39.321Z,100198.89
2019-02-07T07:12:05.708Z,100197.56
2019-02-07T07:15:17.192Z,100199.75
2019-02-07T07:18:39.011Z,100207.69
2019-02-07T07:22:11.391Z,100204.18
2019-02-07T07:25:33.272Z,100193.59
2019-02-07T07:28:56.600Z,100184.69
2019-02-07T07:32:17.941Z,100183.36
2019-02-07T07:35:39.401Z,100168.08
2019-02-07T07:39:02.817Z,100165.80
2019-02-07T07:42:24.328Z,100165.33
2019-02-07T07:45:38.278Z,100156.53
2019-02-07T07:49:06.252Z,100148.22
2019-02-07T07:52:47.138Z,100136.31
2019-02-07T07:56:06.804Z,100127.41
2019-02-07T07:59:28.012Z,100126.19
2019-02-07T08:02:46.994Z,100119.09
2019-02-07T08:05:57.936Z,100115.13
2019-02-07T08:09:19.281Z,100106.33
2019-02-07T08:12:37.024Z,100103.22
2019-02-07T08:15:59.411Z,100110.20
2019-02-07T08:19:22.279Z,100122.87
2019-02-07T08:22:43.995Z,100125.28
2019-02-07T08:26:14.146Z,100135.09
2019-02-07T08:29:42.864Z,100147.72
2019-02-07T08:33:17.892Z,100154.00
2019-02-07T08:36:46.099Z,100160.34
2019-02-07T08:40:21.125Z,100152.76
2019-02-07T08:43:36.744Z,100149.80
2019-02-07T08:46:58.332Z,100147.80
2019-02-07T08:50:24.356Z,100124.79
2019-02-07T08:53:46.430Z,100118.45
2019-02-07T08:57:02.621Z,100116.89
2019-02-07T09:00:26.827Z,100117.28
2019-02-07T09:03:48.212Z,100097.63
2019-02-07T09:07:09.309Z,100090.89
2019-02-07T09:10:33.875Z,100096.80
2019-02-07T09:13:47.940Z,100104.19
2019-02-07T09:17:14.573Z,100111.56
2019-02-07T09:20:35.982Z,100100.96
2019-02-07T09:23:51.559Z,100105.40
2019-02-07T09:27:23.057Z,100101.79
2019-02-07T09:31:01.607Z,100111.56
2019-02-07T09:34:29.668Z,100119.27
2019-02-07T09:37:50.965Z,100110.38
2019-02-07T09:41:12.495Z,100131.48
2019-02-07T09:44:26.991Z,100119.45
2019-02-07T09:47:45.288Z,100123.78
2019-02-07T09:50:57.404Z,100109.42
2019-02-07T09:54:19.359Z,100120.77
2019-02-07T09:57:39.445Z,100123.17
2019-02-07T10:01:01.709Z,100114.08
2019-02-07T10:04:33.544Z,100110.67
2019-02-07T10:07:54.907Z,100105.16
2019-02-07T10:11:16.532Z,100104.80
2019-02-07T10:14:27.243Z,100101.77
2019-02-07T10:17:52.795Z,100097.06
2019-02-07T10:21:03.931Z,100086.83
2019-02-07T10:24:25.535Z,100088.73
2019-02-07T10:27:54.968Z,100085.72
2019-02-07T10:31:16.088Z,100076.44
2019-02-07T10:34:27.311Z,100064.16
2019-02-07T10:37:39.060Z,100061.15
2019-02-07T10:40:54.253Z,100056.56
2019-02-07T10:44:21.597Z,100052.95
2019-02-07T10:47:42.915Z,100047.94
2019-02-07T10:51:01.664Z,100043.24
2019-02-07T10:54:25.435Z,100042.56
2019-02-07T10:57:49.320Z,100035.83
2019-02-07T11:01:10.941Z,100035.22
2019-02-07T11:04:34.644Z,100034.33
2019-02-07T11:07:50.513Z,100030.59
2019-02-07T11:11:04.790Z,100025.66
2019-02-07T11:14:32.522Z,100024.33
2019-02-07T11:17:47.244Z,100017.24
2019-02-07T11:21:03.702Z,100006.25
2019-02-07T11:24:22.555Z,99997.47
2019-02-07T11:27:47.320Z,99994.43
2019-02-07T11:31:10.442Z,99984.44
2019-02-07T11:34:33.019Z,99993.72
2019-02-07T11:37:54.808Z,99983.70
2019-02-07T11:41:17.968Z,99988.99
2019-02-07T11:44:39.674Z,99981.05
2019-02-07T11:48:01.101Z,99983.34
2019-02-07T11:51:17.611Z,99980.33
2019-02-07T11:54:43.227Z,99979.11
2019-02-07T11:57:59.974Z,99978.25
2019-02-07T12:01:32.003Z,99973.42
2019-02-07T12:04:50.689Z,99969.95
2019-02-07T12:08:22.556Z,99972.48
2019-02-07T12:11:59.233Z,99973.20
2019-02-07T12:15:39.884Z,99974.42
2019-02-07T12:19:17.815Z,99977.68
2019-02-07T12:22:30.932Z,99974.06
2019-02-07T12:26:00.002Z,99962.85
2019-02-07T12:29:21.735Z,99959.95
2019-02-07T12:32:37.767Z,99949.60
2019-02-07T12:36:13.900Z,99949.99
2019-02-07T12:39:24.919Z,99959.16
2019-02-07T12:42:37.607Z,99964.81
2019-02-07T12:45:59.121Z,99961.31
2019-02-07T12:49:29.315Z,99953.47
2019-02-07T12:52:53.858Z,99951.31
2019-02-07T12:56:24.815Z,99944.08
2019-02-07T12:59:59.803Z,99938.53
2019-02-07T13:03:28.753Z,99935.42
2019-02-07T13:06:57.342Z,99932.66
2019-02-07T13:10:20.959Z,99930.94
2019-02-07T13:13:36.392Z,99927.94
2019-02-07T13:17:01.321Z,99910.25
2019-02-07T13:20:28.611Z,99903.23
2019-02-07T13:23:49.837Z,99901.91
2019-02-07T13:27:12.460Z,99910.25
2019-02-07T13:30:32.005Z,99898.43
2019-02-07T13:34:04.586Z,99911.18
2019-02-07T13:37:21.421Z,99897.22
2019-02-07T13:40:38.991Z,99893.59
2019-02-07T13:43:55.702Z,99895.53
2019-02-07T13:47:24.077Z,99892.89
2019-02-07T13:50:45.800Z,99895.53
2019-02-07T13:54:09.492Z,99893.82
2019-02-07T13:57:33.147Z,99890.34
2019-02-07T14:00:44.469Z,99889.84
2019-02-07T14:04:19.471Z,99882.52
2019-02-07T14:07:48.172Z,99892.14
2019-02-07T14:11:16.734Z,99892.25
2019-02-07T14:14:33.786Z,99887.42
2019-02-07T14:18:03.330Z,99887.42
2019-02-07T14:21:26.025Z,99895.48
2019-02-07T14:24:39.102Z,99894.30
2019-02-07T14:27:56.746Z,99891.15
2019-02-07T14:31:09.882Z,99881.98
2019-02-07T14:34:26.095Z,99897.88
2019-02-07T14:37:51.749Z,99900.64
2019-02-07T14:41:07.535Z,99903.30
2019-02-07T14:44:33.870Z,99902.94
2019-02-07T14:47:37.502Z,99903.05
2019-02-07T14:50:42.219Z,99904.38
2019-02-07T14:53:46.939Z,99907.02
2019-02-07T14:56:50.665Z,99911.00
2019-02-07T14:59:54.408Z,99915.94
2019-02-07T15:02:58.058Z,99910.64
2019-02-07T15:06:01.784Z,99917.62
2019-02-07T15:09:12.281Z,99915.33
2019-02-07T15:12:15.919Z,99911.57
2019-02-07T15:15:20.436Z,99909.31
2019-02-07T15:18:24.242Z,99916.76
2019-02-07T15:21:28.871Z,99910.64
2019-02-07T15:24:33.638Z,99911.46
2019-02-07T15:27:37.337Z,99911.96
2019-02-07T15:30:41.013Z,99914.22
2019-02-07T15:33:45.776Z,99910.25
2019-02-07T15:36:50.797Z,99914.22
2019-02-07T15:39:54.395Z,99915.19
2019-02-07T15:42:58.084Z,99912.19
2019-02-07T15:46:01.792Z,99913.51
2019-02-07T15:49:05.629Z,99910.86
2019-02-07T15:52:09.231Z,99917.48
2019-02-07T15:55:13.223Z,99915.80
2019-02-07T15:58:18.930Z,99918.06
2019-02-07T16:01:50.837Z,99916.02
2019-02-07T16:04:57.179Z,99929.52
2019-02-07T16:08:01.055Z,99928.94
2019-02-07T16:11:04.650Z,99933.02
2019-02-07T16:14:08.815Z,99931.30
2019-02-07T16:17:12.535Z,99932.73
2019-02-07T16:20:17.385Z,99931.80
2019-02-07T16:23:21.373Z,99935.67
2019-02-07T16:26:24.990Z,99939.03
2019-02-07T16:29:28.935Z,99942.54
2019-02-07T16:32:32.839Z,99938.81
2019-02-07T16:35:38.203Z,99944.11
2019-02-07T16:38:42.078Z,99946.87
2019-02-07T16:41:46.253Z,99954.70
2019-02-07T16:44:50.117Z,99958.33
2019-02-07T16:47:53.920Z,99959.15
2019-02-07T16:51:00.378Z,99957.36
2019-02-07T16:54:03.100Z,99960.36
2019-02-07T16:57:06.757Z,99962.66
2019-02-07T17:00:16.096Z,99958.68
2019-02-07T17:03:19.744Z,99955.67
2019-02-07T17:06:23.391Z,99954.35
2019-02-07T17:09:30.549Z,99951.31
2019-02-07T17:12:34.117Z,99955.28
2019-02-07T17:15:37.811Z,99949.63
2019-02-07T17:18:41.610Z,99955.78
2019-02-07T17:21:45.231Z,99953.24
2019-02-07T17:24:48.945Z,99960.22
2019-02-07T17:27:52.651Z,99959.51
2019-02-07T17:30:56.322Z,99956.36
2019-02-07T17:34:00.889Z,99959.51
2019-02-07T17:37:04.569Z,99963.09
2019-02-07T17:40:11.590Z,99962.16
2019-02-07T17:43:17.317Z,99966.12
2019-02-07T17:46:21.117Z,99964.80
2019-02-07T17:49:24.735Z,99969.14
2019-02-07T17:52:29.857Z,99971.78
2019-02-07T17:55:33.475Z,99975.41
2019-02-07T17:58:37.086Z,99973.97
2019-02-07T18:01:40.768Z,99968.17
2019-02-07T18:04:44.474Z,99970.82
2019-02-07T18:07:48.189Z,99974.69
2019-02-07T18:10:51.889Z,99969.86
2019-02-07T18:13:55.650Z,99978.55
2019-02-07T18:16:59.287Z,99980.45
2019-02-07T18:20:04.392Z,99978.55
2019-02-07T18:23:07.940Z,99986.72
2019-02-07T18:26:11.763Z,99990.22
2019-02-07T18:29:15.367Z,99990.11
2019-02-07T18:32:19.051Z,99999.96
2019-02-07T18:35:22.834Z,100011.77
2019-02-07T18:38:26.470Z,100010.56
2019-02-07T18:41:30.175Z,100009.73
2019-02-07T18:44:33.875Z,100017.68
2019-02-07T18:47:38.628Z,100021.77
2019-02-07T18:50:42.315Z,100029.70
2019-02-07T18:53:46.033Z,100027.53
2019-02-07T18:56:49.760Z,100031.03
2019-02-07T18:59:53.450Z,100036.69
2019-02-07T19:02:57.151Z,100048.25
2019-02-07T19:06:00.857Z,100040.30
2019-02-07T19:09:08.295Z,100039.34
2019-02-07T19:12:11.946Z,100038.48
2019-02-07T19:15:24.244Z,100035.73
2019-02-07T19:18:27.961Z,100030.21
2019-02-07T19:21:31.495Z,100029.64
2019-02-07T19:24:35.188Z,100033.40
2019-02-07T19:27:38.797Z,100032.69
2019-02-07T19:30:42.372Z,100036.30
2019-02-07T19:33:46.065Z,100031.39
2019-02-07T19:36:49.802Z,100018.36
2019-02-07T19:39:55.362Z,100030.42
2019-02-07T19:42:58.948Z,100052.23
2019-02-07T19:46:02.571Z,100056.20
2019-02-07T19:49:06.261Z,100053.56
2019-02-07T19:52:10.039Z,100068.13
2019-02-07T19:55:15.616Z,100085.00
2019-02-07T19:58:19.200Z,100075.33
2019-02-07T20:01:23.967Z,100084.61
2019-02-07T20:04:28.662Z,100069.20
2019-02-07T20:07:32.368Z,100079.30
2019-02-07T20:10:36.080Z,100078.95
2019-02-07T20:13:39.790Z,100091.73
2019-02-07T20:16:44.533Z,100099.57
2019-02-07T20:19:48.098Z,100110.17
2019-02-07T20:22:51.728Z,100123.42
2019-02-07T20:25:55.588Z,100132.09
2019-02-07T20:28:59.395Z,100127.75
2019-02-07T20:32:03.255Z,100130.05
2019-02-07T20:35:07.246Z,100137.39
2019-02-07T20:38:11.086Z,100140.41
2019-02-07T20:41:14.792Z,100147.03
2019-02-07T20:44:18.500Z,100153.55
2019-02-07T20:47:22.204Z,100159.70
2019-02-07T20:50:26.987Z,100164.04
2019-02-07T20:53:32.711Z,100169.73
2019-02-07T20:56:36.412Z,100166.48
2019-02-07T20:59:40.080Z,100168.56
2019-02-07T21:02:43.822Z,100170.24
2019-02-07T21:05:47.436Z,100178.77
2019-02-07T21:08:52.033Z,100175.19
2019-02-07T21:11:55.744Z,100177.34
2019-02-07T21:14:59.439Z,100176.88
2019-02-07T21:18:03.168Z,100178.05
2019-02-07T21:21:06.856Z,100173.52
2019-02-07T21:24:10.615Z,100182.08
2019-02-07T21:27:16.331Z,100189.27
2019-02-07T21:30:25.338Z,100182.03
2019-02-07T21:33:28.970Z,100183.10
2019-02-07T21:36:32.555Z,100178.01
2019-02-07T21:39:36.266Z,100174.60
2019-02-07T21:42:40.147Z,100179.91
2019-02-07T21:45:43.833Z,100178.22
2019-02-07T21:48:47.859Z,100189.74
2019-02-07T21:51:52.532Z,100184.69
2019-02-07T21:54:56.140Z,100186.01
2019-02-07T21:57:59.782Z,100183.36
2019-02-07T22:01:03.538Z,100190.55
2019-02-07T22:04:08.157Z,100197.17
2019-02-07T22:07:11.791Z,100191.52
2019-02-07T22:10:16.438Z,100200.78
2019-02-07T22:13:20.106Z,100209.56
2019-02-07T22:16:23.718Z,100209.66
2019-02-07T22:19:27.304Z,100215.82
2019-02-07T22:22:30.898Z,100217.14
2019-02-07T22:25:34.586Z,100215.92
2019-02-07T22:28:38.149Z,100207.98
2019-02-07T22:31:41.928Z,100211.22
2019-02-07T22:34:45.478Z,100211.69
2019-02-07T22:37:50.231Z,100229.57
2019-02-07T22:40:53.868Z,100224.17
2019-02-07T22:43:57.518Z,100220.70
2019-02-07T22:47:01.278Z,100238.38
2019-02-07T22:50:08.147Z,100226.09
2019-02-07T22:53:11.800Z,100235.83
2019-02-07T22:56:15.469Z,100236.86
2019-02-07T22:59:19.065Z,100231.56
2019-02-07T23:02:22.799Z,100249.25
2019-02-07T23:05:26.576Z,100233.45
2019-02-07T23:08:30.122Z,100242.26
2019-02-07T23:11:33.803Z,100240.58
2019-02-07T23:14:37.406Z,100238.03
2019-02-07T23:17:41.011Z,100242.83
2019-02-07T23:20:44.705Z,100240.17
2019-02-07T23:23:48.284Z,100232.83
2019-02-07T23:26:51.863Z,100237.16
2019-02-07T23:29:55.595Z,100242.46
2019-02-07T23:32:59.256Z,100247.96
2019-02-07T23:36:02.981Z,100257.98
2019-02-07T23:39:09.061Z,100264.25
2019-02-07T23:42:13.679Z,100256.77
2019-02-07T23:45:17.360Z,100248.81
2019-02-07T23:48:21.232Z,100247.03
2019-02-07T23:51:24.823Z,100248.81
2019-02-07T23:54:28.471Z,100255.91
2019-02-07T23:57:32.149Z,100257.63
